Terminal Aerodrome Forecast
Issued by NWS Blacksburg, VA

Current Version | Previous Version | Graphics & Text | Print | Product List | Glossary On
Versions: 1 2 3 4 5 6 7 8 9 10 11 12 13 14 15 16 17 18
000
FTUS41 KRNK 212323
TAFBLF
TAF
KBLF 212323Z 2200/2224 VRB03KT P6SM VCSH SCT045 BKN070
      TEMPO 2207/2211 2SM BR BKN004
     FM221500 31005KT P6SM SCT040=

USA.gov is the U.S. government's official web portal to all federal, state and local government web resources and services.